sensor_id;sensor_type;location;lat;lon;timestamp;pressure;altitude;pressure_sealevel;temperature;humidity
1694;BME280;71975;47.068;15.408;2024-01-25T00:00:55;97868.47;;;12.77;39.14
1694;BME280;71975;47.068;15.408;2024-01-25T00:05:58;97869.13;;;12.88;38.43
1694;BME280;71975;47.068;15.408;2024-01-25T00:11:03;97870.25;;;12.91;38.38
1694;BME280;71975;47.068;15.408;2024-01-25T00:16:06;97872.09;;;12.97;37.76
1694;BME280;71975;47.068;15.408;2024-01-25T00:21:09;97859.13;;;13.08;37.34
1694;BME280;71975;47.068;15.408;2024-01-25T00:26:14;97853.00;;;13.01;37.57
1694;BME280;71975;47.068;15.408;2024-01-25T00:31:17;97860.22;;;13.14;37.47
1694;BME280;71975;47.068;15.408;2024-01-25T00:36:20;97869.03;;;12.95;37.34
1694;BME280;71975;47.068;15.408;2024-01-25T00:41:25;97850.03;;;12.92;37.49
1694;BME280;71975;47.068;15.408;2024-01-25T00:46:29;97871.00;;;12.91;37.89
1694;BME280;71975;47.068;15.408;2024-01-25T00:51:32;97881.03;;;12.98;36.75
1694;BME280;71975;47.068;15.408;2024-01-25T00:56:37;97888.41;;;12.97;37.22
1694;BME280;71975;47.068;15.408;2024-01-25T01:01:42;97895.75;;;13.00;36.48
1694;BME280;71975;47.068;15.408;2024-01-25T01:06:47;97917.56;;;12.93;36.65
1694;BME280;71975;47.068;15.408;2024-01-25T01:11:52;97888.13;;;12.88;36.92
1694;BME280;71975;47.068;15.408;2024-01-25T01:16:55;97891.47;;;12.99;36.92
1694;BME280;71975;47.068;15.408;2024-01-25T01:21:58;97893.47;;;12.95;36.69
1694;BME280;71975;47.068;15.408;2024-01-25T01:27:03;97885.09;;;13.13;36.26
1694;BME280;71975;47.068;15.408;2024-01-25T01:32:06;97873.00;;;13.17;36.50
1694;BME280;71975;47.068;15.408;2024-01-25T01:37:09;97837.53;;;12.98;36.90
1694;BME280;71975;47.068;15.408;2024-01-25T01:42:13;97838.16;;;13.09;36.46
1694;BME280;71975;47.068;15.408;2024-01-25T01:47:16;97851.41;;;13.03;36.67
1694;BME280;71975;47.068;15.408;2024-01-25T01:52:19;97849.59;;;13.23;36.39
1694;BME280;71975;47.068;15.408;2024-01-25T01:57:24;97846.28;;;13.12;36.41
1694;BME280;71975;47.068;15.408;2024-01-25T02:02:29;97834.31;;;13.33;35.92
1694;BME280;71975;47.068;15.408;2024-01-25T02:07:32;97843.47;;;13.19;35.96
1694;BME280;71975;47.068;15.408;2024-01-25T02:12:36;97860.31;;;13.34;35.51
1694;BME280;71975;47.068;15.408;2024-01-25T02:17:40;97855.25;;;13.09;35.77
1694;BME280;71975;47.068;15.408;2024-01-25T02:22:44;97843.88;;;12.88;35.78
1694;BME280;71975;47.068;15.408;2024-01-25T02:27:47;97850.63;;;13.06;35.54
1694;BME280;71975;47.068;15.408;2024-01-25T02:32:50;97858.53;;;12.94;35.75
1694;BME280;71975;47.068;15.408;2024-01-25T02:37:55;97855.25;;;13.09;34.84
1694;BME280;71975;47.068;15.408;2024-01-25T02:42:58;97873.03;;;13.14;34.74
1694;BME280;71975;47.068;15.408;2024-01-25T02:48:01;97863.44;;;13.06;34.57
1694;BME280;71975;47.068;15.408;2024-01-25T02:53:06;97863.72;;;13.15;34.30
1694;BME280;71975;47.068;15.408;2024-01-25T02:58:09;97879.47;;;12.97;34.92
1694;BME280;71975;47.068;15.408;2024-01-25T03:03:12;97901.28;;;12.93;34.10
1694;BME280;71975;47.068;15.408;2024-01-25T03:08:17;97884.28;;;12.86;34.62
1694;BME280;71975;47.068;15.408;2024-01-25T03:13:20;97873.63;;;12.98;34.07
1694;BME280;71975;47.068;15.408;2024-01-25T03:18:23;97893.47;;;12.95;34.24
1694;BME280;71975;47.068;15.408;2024-01-25T03:23:27;97885.78;;;12.90;34.29
1694;BME280;71975;47.068;15.408;2024-01-25T03:28:31;97895.84;;;12.93;33.39
1694;BME280;71975;47.068;15.408;2024-01-25T03:33:34;97877.47;;;13.01;32.79
1694;BME280;71975;47.068;15.408;2024-01-25T03:38:38;97889.09;;;13.01;33.54
1694;BME280;71975;47.068;15.408;2024-01-25T03:43:41;97899.47;;;12.83;33.96
1694;BME280;71975;47.068;15.408;2024-01-25T03:48:46;97877.38;;;12.81;34.25
1694;BME280;71975;47.068;15.408;2024-01-25T03:53:50;97893.00;;;12.74;34.15
1694;BME280;71975;47.068;15.408;2024-01-25T03:58:54;97880.53;;;12.76;34.38
1694;BME280;71975;47.068;15.408;2024-01-25T04:03:57;97865.94;;;12.63;34.15
1694;BME280;71975;47.068;15.408;2024-01-25T04:09:02;97863.78;;;12.51;34.88
1694;BME280;71975;47.068;15.408;2024-01-25T04:14:05;97878.94;;;12.48;35.20
1694;BME280;71975;47.068;15.408;2024-01-25T04:19:08;97899.34;;;12.60;35.67
1694;BME280;71975;47.068;15.408;2024-01-25T04:24:15;97910.34;;;12.49;36.02
1694;BME280;71975;47.068;15.408;2024-01-25T04:29:18;97895.28;;;12.45;36.41
1694;BME280;71975;47.068;15.408;2024-01-25T04:34:21;97914.81;;;12.33;36.77
1694;BME280;71975;47.068;15.408;2024-01-25T04:39:26;97887.53;;;12.43;37.02
1694;BME280;71975;47.068;15.408;2024-01-25T04:44:29;97884.88;;;12.40;36.82
1694;BME280;71975;47.068;15.408;2024-01-25T04:49:32;97923.44;;;12.58;36.88
1694;BME280;71975;47.068;15.408;2024-01-25T04:54:36;97919.19;;;12.20;38.17
1694;BME280;71975;47.068;15.408;2024-01-25T04:59:39;97914.13;;;12.22;41.25
1694;BME280;71975;47.068;15.408;2024-01-25T05:04:42;97915.97;;;12.32;42.41
1694;BME280;71975;47.068;15.408;2024-01-25T05:09:48;97948.63;;;12.21;39.11
1694;BME280;71975;47.068;15.408;2024-01-25T05:14:51;97934.00;;;12.12;39.20
1694;BME280;71975;47.068;15.408;2024-01-25T05:19:54;97947.47;;;11.81;40.45
1694;BME280;71975;47.068;15.408;2024-01-25T05:24:59;97938.69;;;12.08;40.19
1694;BME280;71975;47.068;15.408;2024-01-25T05:30:02;97969.72;;;12.07;40.65
1694;BME280;71975;47.068;15.408;2024-01-25T05:35:07;97980.75;;;11.85;41.09
1694;BME280;71975;47.068;15.408;2024-01-25T05:40:12;97988.63;;;11.69;41.93
1694;BME280;71975;47.068;15.408;2024-01-25T05:45:16;97964.00;;;11.39;42.87
1694;BME280;71975;47.068;15.408;2024-01-25T05:50:21;98016.75;;;11.20;43.96
1694;BME280;71975;47.068;15.408;2024-01-25T05:55:25;98006.66;;;11.28;44.47
1694;BME280;71975;47.068;15.408;2024-01-25T06:00:28;97996.88;;;11.45;44.59
1694;BME280;71975;47.068;15.408;2024-01-25T06:05:31;98013.59;;;11.32;44.92
1694;BME280;71975;47.068;15.408;2024-01-25T06:10:36;98002.31;;;11.41;45.06
1694;BME280;71975;47.068;15.408;2024-01-25T06:15:39;98015.94;;;11.27;46.24
1694;BME280;71975;47.068;15.408;2024-01-25T06:20:42;98016.75;;;11.20;45.96
1694;BME280;71975;47.068;15.408;2024-01-25T06:25:47;97995.13;;;11.10;46.26
1694;BME280;71975;47.068;15.408;2024-01-25T06:30:49;97997.94;;;10.89;46.95
1694;BME280;71975;47.068;15.408;2024-01-25T06:35:53;98023.06;;;10.93;47.62
1694;BME280;71975;47.068;15.408;2024-01-25T06:40:58;98021.50;;;10.99;47.25
1694;BME280;71975;47.068;15.408;2024-01-25T06:46:01;98035.81;;;10.96;47.73
1694;BME280;71975;47.068;15.408;2024-01-25T06:51:04;98047.78;;;11.09;47.81
1694;BME280;71975;47.068;15.408;2024-01-25T06:56:08;98059.41;;;11.06;47.92
1694;BME280;71975;47.068;15.408;2024-01-25T07:01:11;98038.53;;;10.99;47.70
1694;BME280;71975;47.068;15.408;2024-01-25T07:06:15;98053.19;;;11.16;47.91
1694;BME280;71975;47.068;15.408;2024-01-25T07:11:20;98067.81;;;11.29;47.96
1694;BME280;71975;47.068;15.408;2024-01-25T07:16:23;98053.72;;;11.62;47.68
1694;BME280;71975;47.068;15.408;2024-01-25T07:21:26;98061.97;;;12.07;46.81
1694;BME280;71975;47.068;15.408;2024-01-25T07:26:31;98060.03;;;12.55;45.63
1694;BME280;71975;47.068;15.408;2024-01-25T07:31:34;98060.84;;;13.26;44.42
1694;BME280;71975;47.068;15.408;2024-01-25T07:36:37;98065.41;;;13.37;43.83
1694;BME280;71975;47.068;15.408;2024-01-25T07:41:41;98047.53;;;13.92;42.23
1694;BME280;71975;47.068;15.408;2024-01-25T07:46:45;98062.56;;;14.01;42.34
1694;BME280;71975;47.068;15.408;2024-01-25T07:51:49;98053.56;;;14.53;41.14
1694;BME280;71975;47.068;15.408;2024-01-25T07:56:53;98030.13;;;14.59;40.72
1694;BME280;71975;47.068;15.408;2024-01-25T08:01:56;98006.88;;;14.94;39.90
1694;BME280;71975;47.068;15.408;2024-01-25T08:06:59;98018.09;;;15.36;38.98
1694;BME280;71975;47.068;15.408;2024-01-25T08:12:04;98022.19;;;15.47;38.37
1694;BME280;71975;47.068;15.408;2024-01-25T08:17:07;98011.63;;;15.65;38.04
1694;BME280;71975;47.068;15.408;2024-01-25T08:22:10;98019.69;;;16.21;37.21
1694;BME280;71975;47.068;15.408;2024-01-25T08:27:15;98014.63;;;16.96;35.54
1694;BME280;71975;47.068;15.408;2024-01-25T08:32:18;98005.06;;;16.76;35.60
1694;BME280;71975;47.068;15.408;2024-01-25T08:37:21;98011.44;;;16.85;35.37
1694;BME280;71975;47.068;15.408;2024-01-25T08:42:25;97993.38;;;16.59;35.53
1694;BME280;71975;47.068;15.408;2024-01-25T08:47:28;97958.22;;;17.27;34.62
1694;BME280;71975;47.068;15.408;2024-01-25T08:52:33;97952.44;;;17.88;33.33
1694;BME280;71975;47.068;15.408;2024-01-25T08:57:37;97936.25;;;17.81;32.95
1694;BME280;71975;47.068;15.408;2024-01-25T09:02:41;97927.81;;;17.25;34.17
1694;BME280;71975;47.068;15.408;2024-01-25T09:07:45;97922.19;;;16.34;35.30
1694;BME280;71975;47.068;15.408;2024-01-25T09:12:50;97924.47;;;15.74;36.32
1694;BME280;71975;47.068;15.408;2024-01-25T09:17:53;97928.88;;;15.16;36.91
1694;BME280;71975;47.068;15.408;2024-01-25T09:22:56;97940.88;;;14.83;36.84
1694;BME280;71975;47.068;15.408;2024-01-25T09:28:01;97965.47;;;14.40;37.20
1694;BME280;71975;47.068;15.408;2024-01-25T09:33:06;97967.19;;;14.31;36.74
1694;BME280;71975;47.068;15.408;2024-01-25T09:38:09;97970.44;;;13.99;36.83
1694;BME280;71975;47.068;15.408;2024-01-25T09:43:14;97980.13;;;14.00;36.96
1694;BME280;71975;47.068;15.408;2024-01-25T09:48:17;97980.50;;;14.02;36.28
1694;BME280;71975;47.068;15.408;2024-01-25T09:53:22;97990.66;;;13.98;36.44
1694;BME280;71975;47.068;15.408;2024-01-25T09:58:38;97990.31;;;13.96;36.58
1694;BME280;71975;47.068;15.408;2024-01-25T10:03:42;97988.78;;;13.95;35.99
1694;BME280;71975;47.068;15.408;2024-01-25T10:08:46;97995.72;;;14.00;36.34
1694;BME280;71975;47.068;15.408;2024-01-25T10:13:50;97997.78;;;14.15;35.41
1694;BME280;71975;47.068;15.408;2024-01-25T10:18:55;97985.16;;;14.02;35.26
1694;BME280;71975;47.068;15.408;2024-01-25T10:24:01;98000.72;;;14.01;34.76
1694;BME280;71975;47.068;15.408;2024-01-25T10:29:06;97980.69;;;13.88;34.97
1694;BME280;71975;47.068;15.408;2024-01-25T10:34:11;97976.69;;;13.96;34.02
1694;BME280;71975;47.068;15.408;2024-01-25T10:39:17;97986.16;;;13.88;34.31
1694;BME280;71975;47.068;15.408;2024-01-25T10:44:21;97971.22;;;14.00;33.13
1694;BME280;71975;47.068;15.408;2024-01-25T10:49:24;97971.91;;;14.04;32.84
1694;BME280;71975;47.068;15.408;2024-01-25T10:54:28;97975.50;;;14.20;32.20
1694;BME280;71975;47.068;15.408;2024-01-25T10:59:33;97949.88;;;14.18;31.55
1694;BME280;71975;47.068;15.408;2024-01-25T11:04:37;97951.94;;;14.10;32.35
1694;BME280;71975;47.068;15.408;2024-01-25T11:09:40;97943.31;;;14.15;31.39
1694;BME280;71975;47.068;15.408;2024-01-25T11:14:45;97958.25;;;14.30;30.75
1694;BME280;71975;47.068;15.408;2024-01-25T11:19:48;97951.63;;;14.31;30.30
1694;BME280;71975;47.068;15.408;2024-01-25T11:24:52;97951.34;;;14.22;29.74
1694;BME280;71975;47.068;15.408;2024-01-25T11:29:56;97949.09;;;14.17;29.74
1694;BME280;71975;47.068;15.408;2024-01-25T11:34:59;97935.16;;;13.92;30.61
1694;BME280;71975;47.068;15.408;2024-01-25T11:40:04;97948.75;;;14.15;29.92
1694;BME280;71975;47.068;15.408;2024-01-25T11:45:10;97936.56;;;14.23;29.68
1694;BME280;71975;47.068;15.408;2024-01-25T11:50:13;97939.47;;;14.36;29.88
1694;BME280;71975;47.068;15.408;2024-01-25T11:55:17;97949.63;;;14.55;29.71
1694;BME280;71975;47.068;15.408;2024-01-25T12:00:21;97949.06;;;14.21;30.32
1694;BME280;71975;47.068;15.408;2024-01-25T12:05:25;97954.69;;;14.10;30.79
1694;BME280;71975;47.068;15.408;2024-01-25T12:10:29;97952.00;;;14.30;30.00
1694;BME280;71975;47.068;15.408;2024-01-25T12:15:33;97966.41;;;14.30;30.13
1694;BME280;71975;47.068;15.408;2024-01-25T12:20:36;97949.59;;;14.35;30.02
1694;BME280;71975;47.068;15.408;2024-01-25T12:25:40;97973.25;;;14.61;29.84
1694;BME280;71975;47.068;15.408;2024-01-25T12:30:45;97955.69;;;15.57;29.03
1694;BME280;71975;47.068;15.408;2024-01-25T12:35:48;97950.47;;;18.70;24.62
1694;BME280;71975;47.068;15.408;2024-01-25T12:40:52;97943.25;;;20.99;21.79
1694;BME280;71975;47.068;15.408;2024-01-25T12:45:56;97924.53;;;21.30;20.83
1694;BME280;71975;47.068;15.408;2024-01-25T12:51:17;97919.59;;;20.47;22.01
1694;BME280;71975;47.068;15.408;2024-01-25T12:56:20;97915.38;;;21.24;21.07
1694;BME280;71975;47.068;15.408;2024-01-25T13:01:26;97910.56;;;20.19;21.93
1694;BME280;71975;47.068;15.408;2024-01-25T13:06:29;97913.03;;;20.35;21.83
1694;BME280;71975;47.068;15.408;2024-01-25T13:11:32;97904.13;;;20.86;21.49
1694;BME280;71975;47.068;15.408;2024-01-25T13:16:37;97885.50;;;22.74;18.87
1694;BME280;71975;47.068;15.408;2024-01-25T13:21:40;97898.34;;;23.06;18.72
1694;BME280;71975;47.068;15.408;2024-01-25T13:26:43;97904.34;;;23.19;18.54
1694;BME280;71975;47.068;15.408;2024-01-25T13:31:47;97922.44;;;22.62;19.12
1694;BME280;71975;47.068;15.408;2024-01-25T13:36:51;97917.47;;;22.27;18.98
1694;BME280;71975;47.068;15.408;2024-01-25T13:41:53;97933.94;;;21.05;20.25
1694;BME280;71975;47.068;15.408;2024-01-25T13:46:59;97922.59;;;21.22;20.35
1694;BME280;71975;47.068;15.408;2024-01-25T13:52:04;97919.50;;;21.29;19.79
1694;BME280;71975;47.068;15.408;2024-01-25T13:57:07;97924.97;;;19.74;21.34
1694;BME280;71975;47.068;15.408;2024-01-25T14:02:11;97922.03;;;19.60;21.07
1694;BME280;71975;47.068;15.408;2024-01-25T14:07:15;97912.28;;;18.41;22.16
1694;BME280;71975;47.068;15.408;2024-01-25T14:12:18;97915.13;;;17.57;22.39
1694;BME280;71975;47.068;15.408;2024-01-25T14:17:23;97915.09;;;17.19;23.29
1694;BME280;71975;47.068;15.408;2024-01-25T14:22:26;97927.78;;;16.43;23.89
1694;BME280;71975;47.068;15.408;2024-01-25T14:27:34;97930.75;;;16.20;24.00
1694;BME280;71975;47.068;15.408;2024-01-25T14:32:39;97936.66;;;16.02;24.20
1694;BME280;71975;47.068;15.408;2024-01-25T14:37:42;97944.16;;;15.50;24.33
1694;BME280;71975;47.068;15.408;2024-01-25T14:42:45;97935.22;;;15.29;24.58
1694;BME280;71975;47.068;15.408;2024-01-25T14:47:49;97932.47;;;15.13;25.69
1694;BME280;71975;47.068;15.408;2024-01-25T14:52:52;97939.69;;;15.04;25.02
1694;BME280;71975;47.068;15.408;2024-01-25T14:57:55;97943.59;;;15.03;24.57
1694;BME280;71975;47.068;15.408;2024-01-25T15:03:00;97934.78;;;14.95;24.67
1694;BME280;71975;47.068;15.408;2024-01-25T15:08:03;97939.44;;;14.79;24.69
1694;BME280;71975;47.068;15.408;2024-01-25T15:13:06;97941.19;;;14.69;24.59
1694;BME280;71975;47.068;15.408;2024-01-25T15:18:11;97930.34;;;14.66;25.20
1694;BME280;71975;47.068;15.408;2024-01-25T15:23:14;97941.84;;;14.53;24.98
1694;BME280;71975;47.068;15.408;2024-01-25T15:28:17;97950.44;;;14.32;25.68
1694;BME280;71975;47.068;15.408;2024-01-25T15:33:23;97961.19;;;14.16;25.49
1694;BME280;71975;47.068;15.408;2024-01-25T15:38:26;97961.50;;;13.98;26.56
1694;BME280;71975;47.068;15.408;2024-01-25T15:43:29;97952.56;;;13.75;26.61
1694;BME280;71975;47.068;15.408;2024-01-25T15:48:34;97969.56;;;13.56;27.29
1694;BME280;71975;47.068;15.408;2024-01-25T15:53:37;97955.63;;;13.50;26.97
1694;BME280;71975;47.068;15.408;2024-01-25T15:58:40;97963.56;;;13.41;26.79
1694;BME280;71975;47.068;15.408;2024-01-25T16:03:44;97958.97;;;13.35;26.72
1694;BME280;71975;47.068;15.408;2024-01-25T16:08:47;97962.81;;;13.37;25.67
1694;BME280;71975;47.068;15.408;2024-01-25T16:13:50;97965.63;;;13.30;26.13
1694;BME280;71975;47.068;15.408;2024-01-25T16:18:55;97959.91;;;13.24;26.76
1694;BME280;71975;47.068;15.408;2024-01-25T16:23:58;97969.75;;;13.15;26.44
1694;BME280;71975;47.068;15.408;2024-01-25T16:29:01;97971.69;;;13.14;27.07
1694;BME280;71975;47.068;15.408;2024-01-25T16:34:06;97978.53;;;12.92;27.09
1694;BME280;71975;47.068;15.408;2024-01-25T16:39:09;97982.78;;;12.93;26.65
1694;BME280;71975;47.068;15.408;2024-01-25T16:44:12;97986.75;;;12.85;27.38
1694;BME280;71975;47.068;15.408;2024-01-25T16:49:16;97983.00;;;12.76;27.82
1694;BME280;71975;47.068;15.408;2024-01-25T16:54:19;97983.06;;;12.69;28.08
1694;BME280;71975;47.068;15.408;2024-01-25T16:59:22;97977.03;;;12.54;28.15
1694;BME280;71975;47.068;15.408;2024-01-25T17:04:27;97973.94;;;12.52;28.47
1694;BME280;71975;47.068;15.408;2024-01-25T17:09:30;97963.91;;;12.45;28.67
1694;BME280;71975;47.068;15.408;2024-01-25T17:14:33;97967.25;;;12.23;29.16
1694;BME280;71975;47.068;15.408;2024-01-25T17:19:37;97962.06;;;12.35;28.54
1694;BME280;71975;47.068;15.408;2024-01-25T17:24:41;97971.50;;;12.24;29.22
1694;BME280;71975;47.068;15.408;2024-01-25T17:29:44;97969.91;;;11.85;29.19
1694;BME280;71975;47.068;15.408;2024-01-25T17:34:49;97984.34;;;11.72;29.85
1694;BME280;71975;47.068;15.408;2024-01-25T17:39:52;97988.69;;;11.55;29.96
1694;BME280;71975;47.068;15.408;2024-01-25T17:44:55;97993.34;;;11.51;30.50
1694;BME280;71975;47.068;15.408;2024-01-25T17:50:00;97995.59;;;11.63;30.56
1694;BME280;71975;47.068;15.408;2024-01-25T17:55:03;97993.13;;;11.28;31.30
1694;BME280;71975;47.068;15.408;2024-01-25T18:00:08;97991.16;;;11.32;31.88
1694;BME280;71975;47.068;15.408;2024-01-25T18:05:13;98005.94;;;11.17;31.36
1694;BME280;71975;47.068;15.408;2024-01-25T18:10:17;98008.75;;;10.92;31.90
1694;BME280;71975;47.068;15.408;2024-01-25T18:15:20;98015.72;;;10.97;32.32
1694;BME280;71975;47.068;15.408;2024-01-25T18:20:25;98031.28;;;10.64;33.44
1694;BME280;71975;47.068;15.408;2024-01-25T18:25:28;98022.41;;;10.46;33.89
1694;BME280;71975;47.068;15.408;2024-01-25T18:30:32;98023.19;;;9.97;35.00
1694;BME280;71975;47.068;15.408;2024-01-25T18:35:38;98018.16;;;9.82;35.27
1694;BME280;71975;47.068;15.408;2024-01-25T18:40:42;98030.88;;;9.74;35.10
1694;BME280;71975;47.068;15.408;2024-01-25T18:45:50;98029.38;;;9.87;34.71
1694;BME280;71975;47.068;15.408;2024-01-25T18:50:57;98021.22;;;9.84;35.21
1694;BME280;71975;47.068;15.408;2024-01-25T18:56:04;98032.41;;;9.65;35.64
1694;BME280;71975;47.068;15.408;2024-01-25T19:01:10;98036.28;;;9.64;36.15
1694;BME280;71975;47.068;15.408;2024-01-25T19:06:19;98035.50;;;9.67;36.49
1694;BME280;71975;47.068;15.408;2024-01-25T19:11:27;98041.72;;;9.78;35.50
1694;BME280;71975;47.068;15.408;2024-01-25T19:16:33;98047.47;;;9.59;36.75
1694;BME280;71975;47.068;15.408;2024-01-25T19:21:40;98036.19;;;9.35;37.60
1694;BME280;71975;47.068;15.408;2024-01-25T19:26:46;98043.19;;;9.44;36.09
1694;BME280;71975;47.068;15.408;2024-01-25T19:31:51;98043.84;;;9.16;37.48
1694;BME280;71975;47.068;15.408;2024-01-25T19:36:57;98045.78;;;9.15;38.20
1694;BME280;71975;47.068;15.408;2024-01-25T19:42:03;98021.38;;;8.94;38.84
1694;BME280;71975;47.068;15.408;2024-01-25T19:47:08;98040.72;;;9.03;40.47
1694;BME280;71975;47.068;15.408;2024-01-25T19:52:15;98041.03;;;8.88;39.48
1694;BME280;71975;47.068;15.408;2024-01-25T19:57:22;98054.47;;;8.77;39.66
1694;BME280;71975;47.068;15.408;2024-01-25T20:02:28;98060.53;;;8.60;40.10
1694;BME280;71975;47.068;15.408;2024-01-25T20:07:36;98046.59;;;8.51;40.32
1694;BME280;71975;47.068;15.408;2024-01-25T20:12:42;98038.19;;;8.59;40.09
1694;BME280;71975;47.068;15.408;2024-01-25T20:17:48;98049.53;;;8.28;40.92
1694;BME280;71975;47.068;15.408;2024-01-25T20:22:55;98059.22;;;8.33;40.44
1694;BME280;71975;47.068;15.408;2024-01-25T20:28:01;98053.81;;;8.36;41.07
1694;BME280;71975;47.068;15.408;2024-01-25T20:33:07;98051.41;;;8.24;40.63
1694;BME280;71975;47.068;15.408;2024-01-25T20:38:15;98064.03;;;8.13;41.18
1694;BME280;71975;47.068;15.408;2024-01-25T20:43:21;98067.69;;;7.94;41.39
1694;BME280;71975;47.068;15.408;2024-01-25T20:48:27;98069.13;;;7.81;42.28
1694;BME280;71975;47.068;15.408;2024-01-25T20:53:34;98057.47;;;7.70;42.48
1694;BME280;71975;47.068;15.408;2024-01-25T20:58:38;98075.78;;;7.54;43.35
1694;BME280;71975;47.068;15.408;2024-01-25T21:03:41;98053.44;;;7.50;43.18
1694;BME280;71975;47.068;15.408;2024-01-25T21:08:47;98082.66;;;7.48;42.89
1694;BME280;71975;47.068;15.408;2024-01-25T21:13:50;98071.88;;;7.48;43.34
1694;BME280;71975;47.068;15.408;2024-01-25T21:18:53;98084.19;;;7.49;42.77
1694;BME280;71975;47.068;15.408;2024-01-25T21:23:59;98069.94;;;7.49;43.22
1694;BME280;71975;47.068;15.408;2024-01-25T21:29:02;98083.91;;;7.24;44.17
1694;BME280;71975;47.068;15.408;2024-01-25T21:34:05;98091.31;;;7.01;44.05
1694;BME280;71975;47.068;15.408;2024-01-25T21:39:10;98092.72;;;7.21;44.04
1694;BME280;71975;47.068;15.408;2024-01-25T21:44:13;98098.44;;;6.60;45.87
1694;BME280;71975;47.068;15.408;2024-01-25T21:49:15;98101.13;;;6.60;45.80
1694;BME280;71975;47.068;15.408;2024-01-25T21:54:22;98103.75;;;6.57;46.40
1694;BME280;71975;47.068;15.408;2024-01-25T21:59:25;98112.91;;;6.52;45.84
1694;BME280;71975;47.068;15.408;2024-01-25T22:04:28;98131.16;;;6.40;46.80
1694;BME280;71975;47.068;15.408;2024-01-25T22:09:33;98097.16;;;6.28;47.27
1694;BME280;71975;47.068;15.408;2024-01-25T22:14:36;98130.38;;;6.39;46.40
1694;BME280;71975;47.068;15.408;2024-01-25T22:19:39;98107.91;;;6.28;46.78
1694;BME280;71975;47.068;15.408;2024-01-25T22:24:43;98131.94;;;6.40;46.55
1694;BME280;71975;47.068;15.408;2024-01-25T22:29:46;98125.00;;;6.39;46.39
1694;BME280;71975;47.068;15.408;2024-01-25T22:34:49;98126.66;;;6.47;46.40
1694;BME280;71975;47.068;15.408;2024-01-25T22:39:54;98122.94;;;6.55;46.64
1694;BME280;71975;47.068;15.408;2024-01-25T22:44:57;98133.50;;;6.41;47.56
1694;BME280;71975;47.068;15.408;2024-01-25T22:50:00;98142.44;;;6.26;48.01
1694;BME280;71975;47.068;15.408;2024-01-25T23:35:10;98161.78;;;5.90;50.33
1694;BME280;71975;47.068;15.408;2024-01-25T23:40:14;98160.56;;;5.68;50.69
1694;BME280;71975;47.068;15.408;2024-01-25T23:45:19;98165.72;;;5.96;50.03
1694;BME280;71975;47.068;15.408;2024-01-25T23:50:25;98182.84;;;5.88;50.73
1694;BME280;71975;47.068;15.408;2024-01-25T23:55:28;98174.28;;;6.01;50.09
